createdAt,value
2022-11-29T00:01:14.904Z,20.70
2022-11-29T00:03:42.894Z,20.53
2022-11-29T00:06:13.589Z,20.68
2022-11-29T00:08:41.936Z,20.68
2022-11-29T00:11:13.686Z,20.70
2022-11-29T00:13:42.152Z,20.70
2022-11-29T00:16:12.842Z,20.69
2022-11-29T00:18:40.791Z,20.69
2022-11-29T00:21:09.843Z,20.69
2022-11-29T00:23:37.775Z,20.69
2022-11-29T00:26:07.002Z,20.69
2022-11-29T00:28:37.520Z,20.70
2022-11-29T00:31:15.490Z,20.70
2022-11-29T00:33:43.617Z,20.70
2022-11-29T00:36:12.450Z,20.71
2022-11-29T00:38:40.766Z,20.71
2022-11-29T00:41:09.316Z,20.70
2022-11-29T00:43:38.818Z,20.70
2022-11-29T00:46:07.472Z,20.65
2022-11-29T00:48:35.902Z,20.68
2022-11-29T00:51:04.275Z,20.69
2022-11-29T00:53:32.459Z,20.68
2022-11-29T00:56:00.384Z,20.68
2022-11-29T00:58:28.599Z,20.68
2022-11-29T01:00:58.142Z,20.69
2022-11-29T01:03:26.272Z,20.63
2022-11-29T01:05:54.555Z,20.69
2022-11-29T01:08:22.510Z,20.67
2022-11-29T01:10:50.382Z,20.67
2022-11-29T01:13:18.363Z,20.70
2022-11-29T01:15:46.255Z,20.67
2022-11-29T01:18:15.571Z,20.65
2022-11-29T01:20:43.510Z,20.69
2022-11-29T01:23:11.420Z,20.69
2022-11-29T01:25:39.344Z,20.69
2022-11-29T01:28:07.231Z,20.69
2022-11-29T01:30:35.254Z,20.69
2022-11-29T01:33:03.178Z,20.70
2022-11-29T01:35:32.444Z,20.65
2022-11-29T01:38:00.347Z,20.69
2022-11-29T01:40:28.273Z,20.70
2022-11-29T01:42:56.183Z,20.70
2022-11-29T01:45:25.504Z,20.70
2022-11-29T01:47:56.341Z,20.71
2022-11-29T01:50:24.372Z,20.67
2022-11-29T01:52:53.863Z,20.70
2022-11-29T01:55:22.018Z,20.69
2022-11-29T01:57:50.500Z,20.70
2022-11-29T02:00:20.670Z,20.49
2022-11-29T02:02:53.379Z,20.69
2022-11-29T02:05:22.599Z,20.68
2022-11-29T02:07:55.366Z,20.68
2022-11-29T02:10:31.064Z,20.67
2022-11-29T02:13:09.349Z,20.68
2022-11-29T02:15:46.455Z,20.68
2022-11-29T02:18:22.062Z,20.67
2022-11-29T02:21:30.343Z,20.67
2022-11-29T02:24:56.729Z,20.67
2022-11-29T02:28:00.858Z,20.65
2022-11-29T02:30:44.463Z,20.65
2022-11-29T02:33:42.125Z,20.65
2022-11-29T02:36:36.509Z,20.64
2022-11-29T02:39:52.459Z,20.63
2022-11-29T02:42:55.804Z,20.62
2022-11-29T02:45:39.638Z,20.63
2022-11-29T02:48:22.200Z,20.64
2022-11-29T02:50:59.124Z,20.63
2022-11-29T02:53:35.133Z,20.64
2022-11-29T02:56:12.324Z,20.65
2022-11-29T02:58:50.236Z,20.64
2022-11-29T03:01:24.878Z,20.64
2022-11-29T03:04:01.173Z,20.61
2022-11-29T03:06:38.839Z,20.64
2022-11-29T03:09:11.790Z,20.58
2022-11-29T03:11:46.611Z,20.65
2022-11-29T03:14:25.209Z,20.65
2022-11-29T03:17:01.788Z,20.65
2022-11-29T03:19:46.905Z,20.64
2022-11-29T03:22:26.235Z,20.64
2022-11-29T03:25:00.346Z,20.65
2022-11-29T03:27:41.302Z,20.66
2022-11-29T03:30:11.805Z,20.57
2022-11-29T03:32:50.252Z,20.65
2022-11-29T03:35:25.928Z,20.64
2022-11-29T03:38:03.846Z,20.65
2022-11-29T03:40:41.256Z,20.64
2022-11-29T03:43:14.769Z,20.63
2022-11-29T03:45:49.893Z,20.64
2022-11-29T03:48:23.063Z,20.65
2022-11-29T03:50:55.041Z,20.66
2022-11-29T03:53:34.345Z,20.66
2022-11-29T03:56:03.760Z,20.65
2022-11-29T03:58:40.451Z,20.67
2022-11-29T04:01:36.212Z,20.64
2022-11-29T04:04:42.238Z,20.66
2022-11-29T04:07:32.028Z,20.66
2022-11-29T04:10:35.030Z,20.66
2022-11-29T04:13:37.035Z,20.65
2022-11-29T04:16:33.083Z,20.64
2022-11-29T04:19:21.732Z,20.64
2022-11-29T04:22:25.332Z,20.63
2022-11-29T04:25:23.225Z,20.63
2022-11-29T04:28:35.060Z,20.63
2022-11-29T04:31:15.392Z,20.63
2022-11-29T04:34:10.860Z,20.63
2022-11-29T04:36:55.904Z,20.63
2022-11-29T04:39:51.834Z,20.64
2022-11-29T04:42:53.980Z,20.63
2022-11-29T04:45:44.544Z,20.63
2022-11-29T04:48:31.727Z,20.63
2022-11-29T04:51:09.425Z,20.63
2022-11-29T04:53:50.703Z,20.63
2022-11-29T04:56:28.056Z,20.64
2022-11-29T04:59:02.437Z,20.64
2022-11-29T05:01:42.594Z,20.63
2022-11-29T05:04:18.393Z,20.65
2022-11-29T05:06:57.434Z,20.65
2022-11-29T05:09:33.081Z,20.66
2022-11-29T05:12:09.723Z,20.66
2022-11-29T05:14:51.712Z,20.64
2022-11-29T05:17:32.809Z,20.65
2022-11-29T05:20:12.703Z,20.65
2022-11-29T05:22:47.512Z,20.63
2022-11-29T05:25:32.791Z,20.64
2022-11-29T05:28:10.178Z,20.65
2022-11-29T05:31:01.365Z,20.66
2022-11-29T05:33:49.047Z,20.63
2022-11-29T05:36:25.900Z,20.66
2022-11-29T05:39:21.707Z,20.67
2022-11-29T05:42:15.729Z,20.60
2022-11-29T05:44:48.879Z,20.65
2022-11-29T05:47:29.746Z,20.66
2022-11-29T05:50:08.702Z,20.66
2022-11-29T05:52:48.627Z,20.67
2022-11-29T05:55:26.292Z,20.68
2022-11-29T05:57:58.765Z,20.69
2022-11-29T06:00:31.696Z,20.70
2022-11-29T06:03:05.553Z,20.72
2022-11-29T06:05:40.604Z,20.71
2022-11-29T06:08:20.389Z,20.72
2022-11-29T06:11:00.700Z,20.73
2022-11-29T06:13:51.053Z,20.71
2022-11-29T06:16:43.990Z,20.73
2022-11-29T06:19:42.407Z,20.74
2022-11-29T06:22:24.768Z,20.73
2022-11-29T06:25:07.850Z,20.74
2022-11-29T06:27:49.429Z,20.74
2022-11-29T06:30:22.068Z,20.75
2022-11-29T06:32:56.262Z,20.53
2022-11-29T06:35:37.012Z,20.73
2022-11-29T06:38:12.566Z,20.77
2022-11-29T06:40:40.977Z,20.76
2022-11-29T06:43:09.401Z,20.77
2022-11-29T06:45:37.900Z,20.70
2022-11-29T06:48:08.074Z,20.54
2022-11-29T06:50:45.300Z,20.78
2022-11-29T06:53:22.557Z,20.79
2022-11-29T06:55:59.012Z,20.79
2022-11-29T06:58:40.313Z,20.79
2022-11-29T07:01:19.587Z,20.79
2022-11-29T07:04:03.643Z,20.78
2022-11-29T07:06:35.581Z,20.80
2022-11-29T07:09:13.832Z,20.80
2022-11-29T07:11:42.989Z,20.78
2022-11-29T07:14:11.569Z,20.80
2022-11-29T07:16:45.501Z,20.80
2022-11-29T07:19:20.079Z,20.80
2022-11-29T07:22:00.034Z,20.82
2022-11-29T07:24:43.375Z,20.81
2022-11-29T07:27:20.285Z,20.82
2022-11-29T07:30:03.918Z,20.81
2022-11-29T07:32:50.037Z,20.83
2022-11-29T07:35:24.839Z,20.83
2022-11-29T07:38:03.825Z,20.82
2022-11-29T07:40:43.211Z,20.81
2022-11-29T07:43:25.099Z,20.79
2022-11-29T07:45:54.015Z,20.80
2022-11-29T07:48:22.097Z,20.82
2022-11-29T07:50:50.188Z,20.82
2022-11-29T07:53:20.425Z,20.82
2022-11-29T07:55:50.699Z,20.38
2022-11-29T07:58:19.331Z,20.53
2022-11-29T08:00:47.795Z,20.75
2022-11-29T08:03:15.751Z,20.77
2022-11-29T08:05:47.610Z,20.80
2022-11-29T08:08:16.227Z,20.81
2022-11-29T08:10:44.555Z,20.83
2022-11-29T08:13:14.070Z,20.84
2022-11-29T08:15:45.873Z,20.85
2022-11-29T08:18:13.993Z,20.84
2022-11-29T08:20:42.455Z,20.84
2022-11-29T08:23:13.550Z,20.85
2022-11-29T08:25:41.595Z,20.83
2022-11-29T08:28:10.085Z,20.75
2022-11-29T08:30:39.590Z,20.81
2022-11-29T08:33:07.569Z,20.79
2022-11-29T08:35:36.228Z,20.83
2022-11-29T08:38:05.087Z,20.83
2022-11-29T08:40:33.170Z,20.84
2022-11-29T08:43:01.210Z,20.85
2022-11-29T08:45:29.184Z,20.85
2022-11-29T08:47:58.558Z,20.86
2022-11-29T08:50:26.594Z,20.86
2022-11-29T08:53:11.960Z,20.85
2022-11-29T08:55:43.047Z,20.83
2022-11-29T08:58:13.674Z,20.85
2022-11-29T09:00:44.080Z,20.87
2022-11-29T09:03:31.077Z,20.87
2022-11-29T09:05:59.729Z,20.87
2022-11-29T09:08:27.663Z,20.88
2022-11-29T09:10:55.626Z,20.87
2022-11-29T09:13:23.540Z,20.86
2022-11-29T09:15:51.449Z,20.87
2022-11-29T09:18:20.779Z,20.86
2022-11-29T09:20:50.036Z,20.87
2022-11-29T09:23:17.994Z,20.86
2022-11-29T09:25:49.933Z,20.87
2022-11-29T09:28:17.899Z,20.88
2022-11-29T09:30:45.793Z,20.88
2022-11-29T09:33:13.713Z,20.85
2022-11-29T09:35:43.102Z,20.85
2022-11-29T09:38:12.756Z,20.86
2022-11-29T09:40:48.065Z,20.87
2022-11-29T09:43:25.248Z,20.87
2022-11-29T09:46:00.261Z,20.88
2022-11-29T09:48:48.414Z,20.89
2022-11-29T09:51:28.961Z,20.88
2022-11-29T09:54:09.818Z,20.86
2022-11-29T09:56:42.399Z,20.86
2022-11-29T09:59:13.690Z,20.85
2022-11-29T10:01:48.159Z,20.85
2022-11-29T10:04:20.703Z,20.84
2022-11-29T10:06:59.597Z,20.85
2022-11-29T10:09:34.044Z,20.83
2022-11-29T10:12:08.472Z,20.85
2022-11-29T10:14:44.032Z,20.62
2022-11-29T10:17:24.178Z,20.85
2022-11-29T10:19:56.388Z,20.85
2022-11-29T10:22:35.983Z,20.84
2022-11-29T10:25:07.951Z,20.85
2022-11-29T10:27:39.359Z,20.85
2022-11-29T10:30:14.114Z,20.85
2022-11-29T10:32:43.569Z,20.85
2022-11-29T10:35:15.007Z,20.85
2022-11-29T10:38:01.563Z,20.86
2022-11-29T10:40:36.360Z,20.84
2022-11-29T10:43:05.051Z,20.85
2022-11-29T10:45:37.694Z,20.78
2022-11-29T10:48:09.175Z,20.85
2022-11-29T10:50:38.143Z,20.86
2022-11-29T10:53:10.767Z,20.86
2022-11-29T10:55:44.230Z,20.85
2022-11-29T10:58:22.087Z,20.87
2022-11-29T11:00:57.611Z,20.87
2022-11-29T11:03:33.123Z,20.88
2022-11-29T11:06:05.270Z,20.88
2022-11-29T11:08:36.182Z,20.36
2022-11-29T11:11:07.709Z,20.87
2022-11-29T11:13:37.109Z,20.86
2022-11-29T11:16:16.674Z,20.86
2022-11-29T11:18:45.590Z,20.86
2022-11-29T11:21:15.569Z,20.86
2022-11-29T11:23:53.695Z,20.86
2022-11-29T11:26:22.198Z,20.86
2022-11-29T11:28:54.187Z,20.86
2022-11-29T11:31:32.336Z,20.86
2022-11-29T11:34:24.879Z,20.88
2022-11-29T11:36:53.525Z,20.88
2022-11-29T11:39:24.879Z,20.89
2022-11-29T11:42:10.978Z,20.90
2022-11-29T11:44:49.387Z,20.89
2022-11-29T11:47:20.886Z,20.90
2022-11-29T11:49:50.879Z,20.90
2022-11-29T11:52:23.672Z,20.89
2022-11-29T11:54:55.967Z,20.89
2022-11-29T11:57:26.169Z,20.89
2022-11-29T12:00:06.437Z,20.90
2022-11-29T12:02:40.404Z,20.89
2022-11-29T12:05:18.301Z,20.75
2022-11-29T12:10:40.992Z,20.92
2022-11-29T12:13:18.521Z,20.90
2022-11-29T12:15:49.835Z,20.87
2022-11-29T12:18:26.334Z,20.84
2022-11-29T12:20:59.578Z,20.65
2022-11-29T12:23:36.589Z,20.81
2022-11-29T12:26:13.734Z,20.79
2022-11-29T12:28:47.519Z,20.78
2022-11-29T12:31:35.719Z,20.77
2022-11-29T12:34:22.645Z,20.75
2022-11-29T12:36:58.206Z,20.74
2022-11-29T12:39:42.407Z,20.74
2022-11-29T12:42:17.716Z,20.74
2022-11-29T12:44:57.900Z,20.73
2022-11-29T12:47:38.222Z,20.72
2022-11-29T12:50:19.313Z,20.73
2022-11-29T12:52:57.851Z,20.72
2022-11-29T12:55:31.360Z,20.72
2022-11-29T12:58:08.993Z,20.75
2022-11-29T13:00:46.093Z,20.77
2022-11-29T13:03:27.431Z,20.78
2022-11-29T13:06:08.372Z,20.79
2022-11-29T13:08:55.020Z,20.79
2022-11-29T13:11:26.491Z,20.80
2022-11-29T13:14:34.728Z,20.81
2022-11-29T13:16:59.770Z,20.78
2022-11-29T13:19:36.279Z,20.82
2022-11-29T13:22:12.387Z,20.82
2022-11-29T13:24:45.269Z,20.81
2022-11-29T13:27:19.445Z,20.82
2022-11-29T13:29:50.294Z,20.83
2022-11-29T13:32:36.277Z,20.83
2022-11-29T13:35:10.303Z,20.84
2022-11-29T13:37:49.448Z,20.84
2022-11-29T13:40:33.940Z,20.84
2022-11-29T13:43:13.270Z,20.85
2022-11-29T13:45:48.540Z,20.85
2022-11-29T13:48:33.968Z,20.85
2022-11-29T13:51:24.526Z,20.83
2022-11-29T13:53:53.573Z,20.85
2022-11-29T13:56:32.847Z,20.83
2022-11-29T13:59:02.230Z,20.84
2022-11-29T14:01:45.064Z,20.86
2022-11-29T14:04:26.048Z,20.87
2022-11-29T14:07:05.239Z,20.84
2022-11-29T14:09:46.267Z,20.86
2022-11-29T14:12:37.825Z,20.87
2022-11-29T14:15:18.798Z,20.84
2022-11-29T14:17:56.845Z,20.87
2022-11-29T14:20:55.777Z,20.86
2022-11-29T14:23:36.183Z,20.86
2022-11-29T14:26:30.238Z,20.87
2022-11-29T14:28:59.162Z,20.77
2022-11-29T14:31:52.592Z,20.87
2022-11-29T14:34:39.005Z,20.87
2022-11-29T14:37:18.620Z,20.87
2022-11-29T14:39:50.189Z,20.86
2022-11-29T14:42:20.160Z,20.88
2022-11-29T14:44:52.260Z,20.85
2022-11-29T14:47:29.670Z,20.88
2022-11-29T14:50:01.058Z,20.85
2022-11-29T14:52:32.464Z,20.87
2022-11-29T14:55:29.587Z,20.85
2022-11-29T14:58:20.046Z,20.85
2022-11-29T15:01:12.147Z,20.86
2022-11-29T15:03:49.303Z,20.87
2022-11-29T15:06:26.711Z,20.87
2022-11-29T15:09:02.638Z,20.87
2022-11-29T15:11:42.013Z,20.87
2022-11-29T15:14:20.156Z,20.84
2022-11-29T15:17:07.977Z,20.83
2022-11-29T15:20:12.028Z,20.86
2022-11-29T15:22:49.328Z,20.88
2022-11-29T15:25:19.606Z,20.88
2022-11-29T15:27:54.904Z,20.88
2022-11-29T15:30:30.258Z,20.88
2022-11-29T15:32:59.864Z,20.88
2022-11-29T15:35:27.987Z,20.89
2022-11-29T15:37:57.905Z,20.88
2022-11-29T15:40:35.109Z,20.91
2022-11-29T15:43:15.240Z,20.91
2022-11-29T15:45:48.629Z,20.91
2022-11-29T15:48:22.510Z,20.91
2022-11-29T15:51:05.192Z,20.89
2022-11-29T15:53:38.263Z,20.88
2022-11-29T15:56:13.336Z,20.89
2022-11-29T15:58:41.675Z,20.88
2022-11-29T16:01:10.184Z,20.89
2022-11-29T16:03:42.359Z,20.89
2022-11-29T16:06:25.420Z,20.90
2022-11-29T16:08:56.063Z,20.90
2022-11-29T16:11:27.741Z,20.90
2022-11-29T16:14:14.483Z,20.90
2022-11-29T16:16:44.296Z,20.90
2022-11-29T16:19:22.387Z,20.90
2022-11-29T16:22:05.368Z,20.89
2022-11-29T16:24:36.050Z,20.90
2022-11-29T16:27:04.790Z,20.89
2022-11-29T16:29:36.110Z,20.90
2022-11-29T16:32:14.391Z,20.91
2022-11-29T16:34:45.174Z,20.89
2022-11-29T16:37:19.385Z,20.89
2022-11-29T16:39:52.094Z,20.90
2022-11-29T16:42:25.849Z,20.90
2022-11-29T16:45:07.376Z,20.90
2022-11-29T16:47:48.849Z,20.90
2022-11-29T16:50:19.742Z,20.86
2022-11-29T16:52:50.853Z,20.88
2022-11-29T16:55:24.282Z,20.86
2022-11-29T16:57:52.360Z,20.84
2022-11-29T17:00:26.471Z,20.82
2022-11-29T17:02:54.441Z,20.81
2022-11-29T17:05:22.400Z,20.80
2022-11-29T17:07:51.443Z,20.79
2022-11-29T17:10:23.483Z,20.80
2022-11-29T17:12:53.070Z,20.76
2022-11-29T17:15:22.245Z,20.78
2022-11-29T17:17:50.287Z,20.77
2022-11-29T17:20:18.387Z,20.76
2022-11-29T17:22:46.325Z,20.73
2022-11-29T17:25:14.425Z,20.76
2022-11-29T17:27:42.342Z,20.75
2022-11-29T17:30:12.895Z,20.74
2022-11-29T17:32:40.860Z,20.72
2022-11-29T17:35:09.190Z,20.74
2022-11-29T17:37:37.198Z,20.73
2022-11-29T17:40:05.597Z,20.74
2022-11-29T17:42:33.677Z,20.70
2022-11-29T17:45:01.898Z,20.72
2022-11-29T17:47:33.669Z,20.72
2022-11-29T17:50:01.667Z,20.72
2022-11-29T17:52:29.883Z,20.72
2022-11-29T17:54:57.998Z,20.71
2022-11-29T17:57:26.068Z,20.71
2022-11-29T17:59:53.990Z,20.70
2022-11-29T18:02:22.033Z,20.68
2022-11-29T18:04:51.389Z,20.70
2022-11-29T18:07:19.332Z,20.69
2022-11-29T18:09:48.943Z,20.68
2022-11-29T18:12:17.004Z,20.69
2022-11-29T18:14:44.931Z,20.69
2022-11-29T18:17:12.928Z,20.69
2022-11-29T18:19:40.894Z,20.70
2022-11-29T18:22:10.265Z,20.68
2022-11-29T18:24:38.264Z,20.70
2022-11-29T18:27:06.302Z,20.68
2022-11-29T18:29:45.680Z,20.66
2022-11-29T18:32:13.669Z,20.68
2022-11-29T18:34:41.733Z,20.67
2022-11-29T18:37:20.503Z,20.68
2022-11-29T18:39:57.137Z,20.67
2022-11-29T18:42:25.168Z,20.67
2022-11-29T18:44:58.600Z,20.66
2022-11-29T18:47:26.835Z,20.66
2022-11-29T18:49:54.780Z,20.65
2022-11-29T18:52:24.152Z,20.64
2022-11-29T18:54:53.603Z,20.66
2022-11-29T18:57:21.534Z,20.66
2022-11-29T18:59:49.561Z,20.67
2022-11-29T19:02:20.025Z,20.67
2022-11-29T19:04:50.309Z,20.69
2022-11-29T19:07:18.293Z,20.72
2022-11-29T19:09:47.650Z,20.74
2022-11-29T19:12:15.626Z,20.76
2022-11-29T19:14:49.453Z,20.76
2022-11-29T19:17:17.924Z,20.77
2022-11-29T19:19:46.188Z,20.80
2022-11-29T19:22:14.273Z,20.79
2022-11-29T19:24:42.228Z,20.83
2022-11-29T19:27:11.562Z,20.83
2022-11-29T19:29:39.908Z,20.84
2022-11-29T19:32:08.562Z,20.86
2022-11-29T19:34:36.562Z,20.87
2022-11-29T19:37:04.851Z,20.85
2022-11-29T19:39:34.032Z,20.87
2022-11-29T19:42:02.016Z,20.85
2022-11-29T19:44:35.882Z,20.88
2022-11-29T19:47:16.499Z,20.84
2022-11-29T19:49:46.759Z,20.89
2022-11-29T19:52:14.960Z,20.89
2022-11-29T19:54:42.977Z,20.88
2022-11-29T19:57:10.951Z,20.90
2022-11-29T19:59:40.294Z,20.91
2022-11-29T20:02:08.502Z,20.91
2022-11-29T20:04:36.541Z,20.92
2022-11-29T20:07:05.122Z,20.93
2022-11-29T20:09:33.108Z,20.92
2022-11-29T20:12:01.043Z,20.89
2022-11-29T20:14:29.058Z,20.87
2022-11-29T20:16:58.350Z,20.86
2022-11-29T20:19:26.272Z,20.85
2022-11-29T20:21:54.213Z,20.81
2022-11-29T20:24:22.192Z,20.82
2022-11-29T20:26:50.158Z,20.82
2022-11-29T20:29:19.343Z,20.81
2022-11-29T20:31:50.523Z,20.80
2022-11-29T20:34:21.741Z,20.80
2022-11-29T20:37:09.365Z,20.76
2022-11-29T20:39:43.400Z,20.78
2022-11-29T20:42:31.670Z,20.77
2022-11-29T20:45:01.164Z,20.76
2022-11-29T20:47:33.952Z,20.73
2022-11-29T20:50:03.704Z,20.76
2022-11-29T20:52:39.641Z,20.75
2022-11-29T20:55:08.072Z,20.74
2022-11-29T20:57:38.280Z,20.75
2022-11-29T21:00:07.454Z,20.73
2022-11-29T21:02:35.419Z,20.74
2022-11-29T21:05:05.596Z,20.73
2022-11-29T21:07:33.568Z,20.73
2022-11-29T21:10:02.042Z,20.72
2022-11-29T21:12:30.527Z,20.72
2022-11-29T21:14:59.019Z,20.72
2022-11-29T21:17:33.166Z,20.72
2022-11-29T21:20:02.365Z,20.70
2022-11-29T21:22:42.225Z,20.71
2022-11-29T21:25:16.428Z,20.70
2022-11-29T21:27:45.049Z,20.70
2022-11-29T21:30:18.871Z,20.67
2022-11-29T21:32:47.832Z,20.67
2022-11-29T21:35:16.429Z,20.69
2022-11-29T21:37:46.177Z,20.66
2022-11-29T21:40:15.443Z,20.69
2022-11-29T21:42:43.573Z,20.68
2022-11-29T21:45:15.525Z,20.69
2022-11-29T21:47:44.056Z,20.68
2022-11-29T21:50:12.991Z,20.67
2022-11-29T21:52:41.033Z,20.69
2022-11-29T21:55:10.950Z,20.69
2022-11-29T21:57:38.976Z,20.68
2022-11-29T22:00:08.299Z,20.68
2022-11-29T22:02:36.482Z,20.68
2022-11-29T22:05:04.687Z,20.68
2022-11-29T22:07:32.655Z,20.67
2022-11-29T22:10:09.945Z,20.67
2022-11-29T22:12:51.330Z,20.67
2022-11-29T22:15:24.426Z,20.67
2022-11-29T22:17:53.399Z,20.67
2022-11-29T22:20:21.652Z,20.68
2022-11-29T22:22:50.095Z,20.67
2022-11-29T22:25:18.108Z,20.67
2022-11-29T22:27:50.214Z,20.67
2022-11-29T22:30:18.571Z,20.67
2022-11-29T22:32:46.817Z,20.66
2022-11-29T22:35:14.840Z,20.67
2022-11-29T22:37:42.742Z,20.66
2022-11-29T22:40:11.095Z,20.66
2022-11-29T22:42:39.064Z,20.66
2022-11-29T22:45:09.384Z,20.67
2022-11-29T22:47:37.292Z,20.67
2022-11-29T22:50:05.915Z,20.66
2022-11-29T22:52:33.853Z,20.66
2022-11-29T22:55:05.079Z,20.67
2022-11-29T22:57:33.303Z,20.66
2022-11-29T23:00:01.252Z,20.67
2022-11-29T23:02:30.608Z,20.67
2022-11-29T23:04:58.572Z,20.66
2022-11-29T23:07:26.497Z,20.65
2022-11-29T23:09:55.821Z,20.65
2022-11-29T23:12:23.771Z,20.65
2022-11-29T23:14:56.323Z,20.66
2022-11-29T23:17:24.380Z,20.64
2022-11-29T23:19:53.686Z,20.65
2022-11-29T23:22:21.763Z,20.65
2022-11-29T23:24:49.706Z,20.65
2022-11-29T23:27:17.631Z,20.65
2022-11-29T23:29:45.588Z,20.64
2022-11-29T23:32:13.488Z,20.65
2022-11-29T23:34:41.390Z,20.64
2022-11-29T23:37:10.689Z,20.65
2022-11-29T23:39:38.609Z,20.64
2022-11-29T23:42:06.737Z,20.64
2022-11-29T23:44:34.696Z,20.64
2022-11-29T23:47:02.591Z,20.63
2022-11-29T23:49:30.911Z,20.64
2022-11-29T23:51:58.832Z,20.65
2022-11-29T23:54:28.170Z,20.66
2022-11-29T23:56:56.076Z,20.64
2022-11-29T23:59:23.976Z,20.66
